Terminal Aerodrome Forecast
Issued by NWS Wilmington, OH

Current Version | Previous Version | Text Only | Print | Product List | Glossary Off
Versions: 1 2 3 4 5 6 7 8 9 10 11 12 13 14 15 16 17 18 19 20 21

726
FTUS41 KILN 232335 AAB
TAFCVG
TAF AMD
KCVG 232335Z 2400/2506 05010KT P6SM BKN200
     FM240800 04007KT P6SM SCT250
     FM241700 07010KT P6SM BKN050
     FM250400 10007KT P6SM OVC035=

USA.gov is the U.S. government's official web portal to all federal, state and local government web resources and services.